createdAt,value
2016-05-16T00:00:07.537Z,0
2016-05-16T00:01:07.540Z,0
2016-05-16T00:02:07.402Z,0
2016-05-16T00:03:07.420Z,0
2016-05-16T00:04:07.595Z,0
2016-05-16T00:05:07.488Z,0
2016-05-16T00:06:07.648Z,0
2016-05-16T00:07:07.665Z,0
2016-05-16T00:08:07.668Z,0
2016-05-16T00:09:07.545Z,0
2016-05-16T00:10:07.720Z,0
2016-05-16T00:11:07.754Z,0
2016-05-16T00:12:07.600Z,0
2016-05-16T00:13:07.776Z,0
2016-05-16T00:14:07.794Z,0
2016-05-16T00:15:07.812Z,0
2016-05-16T00:16:07.689Z,0
2016-05-16T00:17:07.864Z,0
2016-05-16T00:18:07.882Z,0
2016-05-16T00:19:07.744Z,0
2016-05-16T00:20:07.325Z,0
2016-05-16T00:21:07.782Z,0
2016-05-16T00:22:07.799Z,0
2016-05-16T00:23:07.818Z,0
2016-05-16T00:24:08.024Z,0
2016-05-16T00:25:07.871Z,0
2016-05-16T00:26:08.029Z,0
2016-05-16T00:27:08.048Z,0
2016-05-16T00:28:08.066Z,0
2016-05-16T00:29:08.115Z,0
2016-05-16T00:30:08.134Z,0
2016-05-16T00:31:08.136Z,0
2016-05-16T00:32:08.155Z,0
2016-05-16T00:33:08.173Z,0
2016-05-16T00:34:08.223Z,0
2016-05-16T00:35:07.944Z,0
2016-05-16T00:36:08.243Z,0
2016-05-16T00:37:08.262Z,0
2016-05-16T00:38:08.280Z,0
2016-05-16T00:39:08.298Z,0
2016-05-16T00:40:08.176Z,0
2016-05-16T00:41:08.351Z,0
2016-05-16T00:42:08.228Z,0
2016-05-16T00:43:08.403Z,0
2016-05-16T00:44:08.421Z,0
2016-05-16T00:45:08.439Z,0
2016-05-16T00:46:08.458Z,0
2016-05-16T00:47:08.477Z,0
2016-05-16T00:48:08.494Z,0
2016-05-16T00:49:08.372Z,0
2016-05-16T00:50:08.969Z,0
2016-05-16T00:51:08.533Z,0
2016-05-16T00:52:08.552Z,0
2016-05-16T00:53:08.430Z,0
2016-05-16T00:54:08.605Z,0
2016-05-16T00:55:08.466Z,0
2016-05-16T00:56:08.641Z,0
2016-05-16T00:57:08.644Z,0
2016-05-16T00:58:08.678Z,0
2016-05-16T00:59:08.554Z,0
2016-05-16T01:00:08.714Z,0
2016-05-16T01:01:08.732Z,0
2016-05-16T01:02:08.751Z,0
2016-05-16T01:03:08.613Z,0
2016-05-16T01:04:08.818Z,0
2016-05-16T01:05:09.368Z,0
2016-05-16T01:06:08.683Z,0
2016-05-16T01:07:08.859Z,0
2016-05-16T01:08:08.876Z,0
2016-05-16T01:09:08.739Z,0
2016-05-16T01:10:08.929Z,0
2016-05-16T01:11:08.947Z,0
2016-05-16T01:12:08.950Z,0
2016-05-16T01:13:08.968Z,0
2016-05-16T01:14:08.846Z,0
2016-05-16T01:15:08.864Z,0
2016-05-16T01:16:09.022Z,0
2016-05-16T01:17:08.900Z,0
2016-05-16T01:18:09.060Z,0
2016-05-16T01:19:08.938Z,0
2016-05-16T01:20:08.972Z,0
2016-05-16T01:21:08.974Z,0
2016-05-16T01:22:09.148Z,0
2016-05-16T01:23:09.011Z,0
2016-05-16T01:24:08.889Z,0
2016-05-16T01:25:09.219Z,0
2016-05-16T01:26:09.237Z,0
2016-05-16T01:27:09.256Z,0
2016-05-16T01:28:09.289Z,0
2016-05-16T01:29:09.152Z,0
2016-05-16T01:30:09.154Z,0
2016-05-16T01:31:09.204Z,0
2016-05-16T01:32:09.207Z,0
2016-05-16T01:33:09.226Z,0
2016-05-16T01:34:09.399Z,0
2016-05-16T01:35:09.417Z,0
2016-05-16T01:36:09.279Z,0
2016-05-16T01:37:09.440Z,0
2016-05-16T01:38:09.301Z,0
2016-05-16T01:39:09.506Z,0
2016-05-16T01:40:09.510Z,0
2016-05-16T01:41:09.528Z,0
2016-05-16T01:42:09.545Z,0
2016-05-16T01:43:09.409Z,0
2016-05-16T01:44:09.583Z,0
2016-05-16T01:45:09.444Z,0
2016-05-16T01:46:09.620Z,0
2016-05-16T01:47:09.638Z,0
2016-05-16T01:48:09.671Z,0
2016-05-16T01:49:09.675Z,0
2016-05-16T01:50:09.989Z,0
2016-05-16T01:51:09.757Z,0
2016-05-16T01:52:09.816Z,0
2016-05-16T01:53:09.891Z,0
2016-05-16T01:54:09.948Z,0
2016-05-16T01:55:09.836Z,0
2016-05-16T01:56:10.031Z,0
2016-05-16T01:57:10.063Z,0
2016-05-16T01:58:10.113Z,0
2016-05-16T01:59:09.989Z,0
2016-05-16T02:00:10.178Z,0
2016-05-16T02:01:10.047Z,0
2016-05-16T02:02:10.228Z,0
2016-05-16T02:03:10.252Z,0
2016-05-16T02:04:10.275Z,0
2016-05-16T02:05:10.158Z,0
2016-05-16T02:06:10.257Z,0
2016-05-16T02:07:10.356Z,0
2016-05-16T02:08:10.360Z,0
2016-05-16T02:09:10.396Z,0
2016-05-16T02:10:10.276Z,0
2016-05-16T02:11:10.436Z,0
2016-05-16T02:12:10.455Z,0
2016-05-16T02:13:10.489Z,0
2016-05-16T02:14:10.337Z,0
2016-05-16T02:15:10.528Z,0
2016-05-16T02:16:10.562Z,0
2016-05-16T02:17:10.548Z,0
2016-05-16T02:18:10.568Z,0
2016-05-16T02:19:10.617Z,0
2016-05-16T02:20:11.087Z,0
2016-05-16T02:21:10.638Z,0
2016-05-16T02:22:10.500Z,0
2016-05-16T02:23:10.236Z,0
2016-05-16T02:24:10.678Z,0
2016-05-16T02:25:10.711Z,0
2016-05-16T02:26:10.729Z,0
2016-05-16T02:27:10.606Z,0
2016-05-16T02:28:10.766Z,0
2016-05-16T02:29:10.784Z,0
2016-05-16T02:30:10.912Z,0
2016-05-16T02:31:10.883Z,0
2016-05-16T02:32:10.699Z,0
2016-05-16T02:33:10.716Z,0
2016-05-16T02:34:10.720Z,0
2016-05-16T02:35:12.472Z,0
2016-05-16T02:36:11.022Z,0
2016-05-16T02:37:11.040Z,0
2016-05-16T02:38:10.808Z,0
2016-05-16T02:39:10.811Z,0
2016-05-16T02:40:11.002Z,0
2016-05-16T02:41:11.019Z,0
2016-05-16T02:42:11.037Z,0
2016-05-16T02:43:11.056Z,0
2016-05-16T02:44:11.074Z,0
2016-05-16T02:45:10.937Z,0
2016-05-16T02:46:10.954Z,0
2016-05-16T02:47:11.130Z,0
2016-05-16T02:48:11.148Z,0
2016-05-16T02:49:11.010Z,0
2016-05-16T02:50:11.590Z,0
2016-05-16T02:51:11.203Z,0
2016-05-16T02:52:11.220Z,0
2016-05-16T02:53:11.099Z,0
2016-05-16T02:54:11.289Z,0
2016-05-16T02:55:11.292Z,0
2016-05-16T02:56:11.309Z,0
2016-05-16T02:57:11.328Z,0
2016-05-16T02:58:11.190Z,0
2016-05-16T02:59:11.365Z,0
2016-05-16T03:00:11.586Z,0
2016-05-16T03:01:11.261Z,0
2016-05-16T03:02:11.420Z,0
2016-05-16T03:03:11.141Z,0
2016-05-16T03:04:11.456Z,0
2016-05-16T03:05:11.396Z,0
2016-05-16T03:06:11.352Z,0
2016-05-16T03:07:11.527Z,0
2016-05-16T03:08:11.530Z,0
2016-05-16T03:09:11.407Z,0
2016-05-16T03:10:11.582Z,0
2016-05-16T03:11:11.600Z,0
2016-05-16T03:12:11.619Z,0
2016-05-16T03:13:11.480Z,0
2016-05-16T03:14:11.655Z,0
2016-05-16T03:15:11.673Z,0
2016-05-16T03:16:11.738Z,0
2016-05-16T03:17:11.554Z,0
2016-05-16T03:18:11.744Z,0
2016-05-16T03:19:11.746Z,0
2016-05-16T03:20:11.781Z,0
2016-05-16T03:21:11.784Z,0
2016-05-16T03:22:11.817Z,0
2016-05-16T03:23:11.836Z,0
2016-05-16T03:24:11.542Z,0
2016-05-16T03:25:11.857Z,0
2016-05-16T03:26:11.734Z,0
2016-05-16T03:27:11.909Z,0
2016-05-16T03:28:11.770Z,0
2016-05-16T03:29:11.805Z,0
2016-05-16T03:30:11.808Z,0
2016-05-16T03:31:11.842Z,0
2016-05-16T03:32:11.844Z,0
2016-05-16T03:33:12.159Z,0
2016-05-16T03:34:12.225Z,0
2016-05-16T03:35:12.289Z,0
2016-05-16T03:36:12.105Z,0
2016-05-16T03:37:12.108Z,0
2016-05-16T03:38:12.126Z,0
2016-05-16T03:39:12.144Z,0
2016-05-16T03:40:12.163Z,0
2016-05-16T03:41:12.180Z,0
2016-05-16T03:42:12.043Z,0
2016-05-16T03:43:12.202Z,0
2016-05-16T03:44:11.768Z,0
2016-05-16T03:45:12.270Z,0
2016-05-16T03:46:12.273Z,0
2016-05-16T03:47:12.291Z,0
2016-05-16T03:48:12.309Z,0
2016-05-16T03:49:12.327Z,0
2016-05-16T03:50:12.362Z,0
2016-05-16T03:51:12.223Z,0
2016-05-16T03:52:12.398Z,0
2016-05-16T03:53:12.401Z,0
2016-05-16T03:54:12.434Z,0
2016-05-16T03:55:12.453Z,0
2016-05-16T03:56:12.471Z,0
2016-05-16T03:57:12.490Z,0
2016-05-16T03:58:12.383Z,0
2016-05-16T03:59:12.526Z,0
2016-05-16T04:00:12.560Z,0
2016-05-16T04:01:12.563Z,0
2016-05-16T04:02:12.425Z,0
2016-05-16T04:03:12.615Z,0
2016-05-16T04:04:12.633Z,0
2016-05-16T04:05:12.605Z,0
2016-05-16T04:06:12.498Z,0
2016-05-16T04:07:12.376Z,0
2016-05-16T04:08:12.738Z,0
2016-05-16T04:09:12.553Z,0
2016-05-16T04:10:12.743Z,0
2016-05-16T04:11:12.605Z,0
2016-05-16T04:12:12.780Z,0
2016-05-16T04:13:12.626Z,0
2016-05-16T04:14:12.816Z,0
2016-05-16T04:15:12.835Z,0
2016-05-16T04:16:12.854Z,0
2016-05-16T04:17:12.856Z,0
2016-05-16T04:18:12.890Z,0
2016-05-16T04:19:12.751Z,0
2016-05-16T04:20:12.629Z,0
2016-05-16T04:21:12.945Z,0
2016-05-16T04:22:12.823Z,0
2016-05-16T04:23:12.840Z,0
2016-05-16T04:24:12.984Z,0
2016-05-16T04:25:13.034Z,0
2016-05-16T04:26:13.051Z,0
2016-05-16T04:27:12.914Z,5
2016-05-16T04:28:13.104Z,5
2016-05-16T04:29:13.107Z,5
2016-05-16T04:30:13.141Z,5
2016-05-16T04:31:12.831Z,5
2016-05-16T04:32:13.161Z,5
2016-05-16T04:33:13.180Z,5
2016-05-16T04:34:13.198Z,5
2016-05-16T04:35:14.076Z,5
2016-05-16T04:36:13.078Z,5
2016-05-16T04:37:13.253Z,5
2016-05-16T04:38:13.116Z,5
2016-05-16T04:39:13.306Z,5
2016-05-16T04:40:13.433Z,5
2016-05-16T04:41:13.327Z,5
2016-05-16T04:42:13.627Z,5
2016-05-16T04:43:13.363Z,5
2016-05-16T04:44:13.397Z,5
2016-05-16T04:45:13.243Z,5
2016-05-16T04:46:13.121Z,5
2016-05-16T04:47:13.452Z,5
2016-05-16T04:48:13.471Z,5
2016-05-16T04:49:13.473Z,5
2016-05-16T04:50:13.788Z,5
2016-05-16T04:51:13.509Z,5
2016-05-16T04:52:13.544Z,5
2016-05-16T04:53:13.562Z,5
2016-05-16T04:54:13.581Z,5
2016-05-16T04:55:13.442Z,5
2016-05-16T04:56:13.617Z,5
2016-05-16T04:57:13.651Z,5
2016-05-16T04:58:13.372Z,5
2016-05-16T04:59:13.672Z,5
2016-05-16T05:00:13.690Z,5
2016-05-16T05:01:13.709Z,5
2016-05-16T05:02:13.258Z,5
2016-05-16T05:03:13.589Z,5
2016-05-16T05:04:13.763Z,10
2016-05-16T05:05:14.328Z,10
2016-05-16T05:06:13.659Z,10
2016-05-16T05:07:13.819Z,15
2016-05-16T05:08:13.696Z,15
2016-05-16T05:09:13.871Z,10
2016-05-16T05:10:13.717Z,10
2016-05-16T05:11:13.907Z,10
2016-05-16T05:12:13.769Z,10
2016-05-16T05:13:13.928Z,5
2016-05-16T05:14:13.806Z,5
2016-05-16T05:15:13.981Z,5
2016-05-16T05:16:13.858Z,5
2016-05-16T05:17:14.017Z,5
2016-05-16T05:18:13.895Z,10
2016-05-16T05:19:14.054Z,10
2016-05-16T05:20:14.541Z,10
2016-05-16T05:21:14.090Z,10
2016-05-16T05:22:13.952Z,10
2016-05-16T05:23:14.126Z,15
2016-05-16T05:24:13.990Z,10
2016-05-16T05:25:14.007Z,10
2016-05-16T05:26:14.182Z,15
2016-05-16T05:27:14.200Z,10
2016-05-16T05:28:14.062Z,15
2016-05-16T05:29:14.253Z,20
2016-05-16T05:30:14.270Z,15
2016-05-16T05:31:14.117Z,15
2016-05-16T05:32:14.308Z,15
2016-05-16T05:33:14.170Z,15
2016-05-16T05:34:14.345Z,15
2016-05-16T05:35:14.534Z,15
2016-05-16T05:36:14.224Z,15
2016-05-16T05:37:14.243Z,15
2016-05-16T05:38:14.417Z,10
2016-05-16T05:39:14.452Z,10
2016-05-16T05:40:14.297Z,10
2016-05-16T05:41:14.488Z,10
2016-05-16T05:42:14.505Z,15
2016-05-16T05:43:14.509Z,25
2016-05-16T05:44:14.230Z,20
2016-05-16T05:45:14.405Z,25
2016-05-16T05:46:14.579Z,25
2016-05-16T05:47:14.442Z,25
2016-05-16T05:48:14.615Z,20
2016-05-16T05:49:14.635Z,20
2016-05-16T05:50:14.965Z,20
2016-05-16T05:51:14.530Z,20
2016-05-16T05:52:14.532Z,15
2016-05-16T05:53:14.552Z,15
2016-05-16T05:54:14.726Z,15
2016-05-16T05:55:14.760Z,15
2016-05-16T05:56:14.763Z,20
2016-05-16T05:57:14.828Z,15
2016-05-16T05:58:14.815Z,15
2016-05-16T05:59:14.833Z,20
2016-05-16T06:00:14.836Z,20
2016-05-16T06:01:14.854Z,15
2016-05-16T06:02:14.732Z,15
2016-05-16T06:03:14.922Z,15
2016-05-16T06:04:14.769Z,15
2016-05-16T06:05:14.865Z,15
2016-05-16T06:06:14.977Z,15
2016-05-16T06:07:14.839Z,15
2016-05-16T06:08:14.998Z,15
2016-05-16T06:09:15.047Z,15
2016-05-16T06:10:15.035Z,15
2016-05-16T06:11:15.052Z,15
2016-05-16T06:12:14.916Z,15
2016-05-16T06:13:15.121Z,15
2016-05-16T06:14:15.124Z,15
2016-05-16T06:15:15.141Z,15
2016-05-16T06:16:15.160Z,15
2016-05-16T06:17:15.021Z,15
2016-05-16T06:18:15.212Z,20
2016-05-16T06:19:15.075Z,20
2016-05-16T06:20:15.296Z,20
2016-05-16T06:21:15.283Z,20
2016-05-16T06:22:14.957Z,20
2016-05-16T06:23:15.148Z,20
2016-05-16T06:24:15.323Z,20
2016-05-16T06:25:15.340Z,20
2016-05-16T06:26:15.203Z,30
2016-05-16T06:27:15.377Z,20
2016-05-16T06:28:15.254Z,15
2016-05-16T06:29:15.429Z,20
2016-05-16T06:30:15.292Z,15
2016-05-16T06:31:15.294Z,20
2016-05-16T06:32:15.485Z,25
2016-05-16T06:33:15.486Z,20
2016-05-16T06:34:15.350Z,25
2016-05-16T06:35:15.743Z,20
2016-05-16T06:36:15.558Z,20
2016-05-16T06:37:15.436Z,20
2016-05-16T06:38:15.594Z,15
2016-05-16T06:39:15.613Z,15
2016-05-16T06:40:15.631Z,15
2016-05-16T06:41:15.665Z,15
2016-05-16T06:42:15.527Z,15
2016-05-16T06:43:15.686Z,10
2016-05-16T06:44:15.657Z,10
2016-05-16T06:45:15.597Z,10
2016-05-16T06:46:15.757Z,10
2016-05-16T06:47:15.791Z,15
2016-05-16T06:48:15.638Z,15
2016-05-16T06:49:15.811Z,15
2016-05-16T06:50:15.939Z,25
2016-05-16T06:51:15.864Z,25
2016-05-16T06:52:15.882Z,35
2016-05-16T06:53:15.901Z,45
2016-05-16T06:54:15.762Z,30
2016-05-16T06:55:15.952Z,25
2016-05-16T06:56:15.799Z,25
2016-05-16T06:57:15.818Z,20
2016-05-16T06:58:15.992Z,10
2016-05-16T06:59:16.620Z,10
2016-05-16T07:00:16.059Z,10
2016-05-16T07:01:16.062Z,5
2016-05-16T07:02:16.706Z,10
2016-05-16T07:03:16.114Z,10
2016-05-16T07:04:15.977Z,10
2016-05-16T07:05:16.151Z,10
2016-05-16T07:06:16.013Z,15
2016-05-16T07:07:16.189Z,15
2016-05-16T07:08:16.034Z,15
2016-05-16T07:09:16.209Z,15
2016-05-16T07:10:16.102Z,10
2016-05-16T07:11:16.292Z,10
2016-05-16T07:12:16.311Z,10
2016-05-16T07:13:16.189Z,10
2016-05-16T07:14:16.207Z,15
2016-05-16T07:15:16.350Z,10
2016-05-16T07:16:16.384Z,15
2016-05-16T07:17:16.543Z,15
2016-05-16T07:18:16.264Z,10
2016-05-16T07:19:16.282Z,10
2016-05-16T07:20:16.004Z,15
2016-05-16T07:21:16.491Z,15
2016-05-16T07:22:16.197Z,20
2016-05-16T07:23:16.528Z,30
2016-05-16T07:24:16.546Z,40
2016-05-16T07:25:16.408Z,50
2016-05-16T07:26:16.582Z,35
2016-05-16T07:27:16.601Z,40
2016-05-16T07:28:16.635Z,40
2016-05-16T07:29:16.637Z,30
2016-05-16T07:30:16.672Z,20
2016-05-16T07:31:16.534Z,15
2016-05-16T07:32:16.723Z,15
2016-05-16T07:33:16.398Z,15
2016-05-16T07:34:16.761Z,20
2016-05-16T07:35:17.389Z,25
2016-05-16T07:36:16.781Z,25
2016-05-16T07:37:16.659Z,15
2016-05-16T07:38:16.693Z,15
2016-05-16T07:39:16.853Z,15
2016-05-16T07:40:16.871Z,10
2016-05-16T07:41:16.935Z,5
2016-05-16T07:42:16.908Z,15
2016-05-16T07:43:16.941Z,25
2016-05-16T07:44:16.959Z,20
2016-05-16T07:45:16.821Z,15
2016-05-16T07:46:16.980Z,10
2016-05-16T07:47:17.013Z,10
2016-05-16T07:48:17.141Z,10
2016-05-16T07:49:17.177Z,10
2016-05-16T07:50:17.100Z,10
2016-05-16T07:51:17.307Z,15
2016-05-16T07:52:17.121Z,15
2016-05-16T07:53:17.124Z,15
2016-05-16T07:54:17.158Z,15
2016-05-16T07:55:17.160Z,15
2016-05-16T07:56:17.038Z,15
2016-05-16T07:57:17.056Z,20
2016-05-16T07:58:17.232Z,25
2016-05-16T07:59:17.266Z,45
2016-05-16T08:00:17.284Z,50
2016-05-16T08:01:17.146Z,35
2016-05-16T08:02:16.992Z,25
2016-05-16T08:03:17.339Z,15
2016-05-16T08:04:17.200Z,15
2016-05-16T08:05:17.234Z,25
2016-05-16T08:06:17.393Z,45
2016-05-16T08:07:17.115Z,35
2016-05-16T08:08:17.117Z,40
2016-05-16T08:09:17.448Z,40
2016-05-16T08:10:17.326Z,40
2016-05-16T08:11:17.500Z,35
2016-05-16T08:12:17.534Z,25
2016-05-16T08:13:17.396Z,25
2016-05-16T08:14:17.572Z,25
2016-05-16T08:15:17.434Z,25
2016-05-16T08:16:17.608Z,20
2016-05-16T08:17:17.627Z,25
2016-05-16T08:18:17.504Z,30
2016-05-16T08:19:17.663Z,30
2016-05-16T08:20:17.541Z,20
2016-05-16T08:21:32.637Z,15
2016-05-16T08:22:17.577Z,20
2016-05-16T08:23:27.471Z,25
2016-05-16T08:24:17.614Z,30
2016-05-16T08:25:17.491Z,35
2016-05-16T08:26:17.651Z,45
2016-05-16T08:27:17.684Z,50
2016-05-16T08:28:17.859Z,45
2016-05-16T08:29:17.579Z,45
2016-05-16T08:30:17.911Z,40
2016-05-16T08:31:17.930Z,30
2016-05-16T08:32:17.792Z,15
2016-05-16T08:33:17.810Z,10
2016-05-16T08:34:17.828Z,15
2016-05-16T08:35:18.003Z,15
2016-05-16T08:36:18.021Z,15
2016-05-16T08:37:17.742Z,15
2016-05-16T08:38:17.917Z,15
2016-05-16T08:39:17.936Z,15
2016-05-16T08:40:18.125Z,20
2016-05-16T08:41:18.144Z,25
2016-05-16T08:42:18.162Z,35
2016-05-16T08:43:18.024Z,40
2016-05-16T08:44:18.200Z,40
2016-05-16T08:45:18.232Z,45
2016-05-16T08:46:18.266Z,45
2016-05-16T08:47:18.270Z,45
2016-05-16T08:48:18.288Z,45
2016-05-16T08:49:18.338Z,45
2016-05-16T08:50:18.386Z,45
2016-05-16T08:51:18.374Z,45
2016-05-16T08:52:18.377Z,40
2016-05-16T08:53:18.426Z,40
2016-05-16T08:54:18.444Z,35
2016-05-16T08:55:18.447Z,25
2016-05-16T08:56:18.482Z,25
2016-05-16T08:57:18.327Z,25
2016-05-16T08:58:18.362Z,25
2016-05-16T08:59:18.535Z,30
2016-05-16T09:00:18.398Z,35
2016-05-16T09:01:18.572Z,30
2016-05-16T09:02:18.278Z,35
2016-05-16T09:03:18.610Z,30
2016-05-16T09:04:18.487Z,25
2016-05-16T09:05:18.912Z,30
2016-05-16T09:06:19.054Z,25
2016-05-16T09:07:18.698Z,20
2016-05-16T09:08:18.748Z,25
2016-05-16T09:09:18.766Z,25
2016-05-16T09:10:18.769Z,20
2016-05-16T09:11:18.678Z,20
2016-05-16T09:12:18.837Z,20
2016-05-16T09:13:18.839Z,30
2016-05-16T09:14:18.717Z,45
2016-05-16T09:15:18.907Z,45
2016-05-16T09:16:18.925Z,55
2016-05-16T09:17:18.958Z,65
2016-05-16T09:18:18.649Z,45
2016-05-16T09:19:18.809Z,35
2016-05-16T09:20:18.686Z,25
2016-05-16T09:21:19.252Z,25
2016-05-16T09:22:18.879Z,20
2016-05-16T09:23:19.054Z,15
2016-05-16T09:24:19.088Z,20
2016-05-16T09:25:19.106Z,15
2016-05-16T09:26:18.983Z,10
2016-05-16T09:27:19.143Z,10
2016-05-16T09:28:19.161Z,15
2016-05-16T09:29:19.210Z,10
2016-05-16T09:30:19.229Z,10
2016-05-16T09:31:18.950Z,10
2016-05-16T09:32:19.265Z,10
2016-05-16T09:33:19.284Z,10
2016-05-16T09:34:19.302Z,10
2016-05-16T09:35:20.071Z,10
2016-05-16T09:36:19.370Z,5
2016-05-16T09:37:19.217Z,5
2016-05-16T09:38:19.078Z,5
2016-05-16T09:39:19.284Z,5
2016-05-16T09:40:19.271Z,5
2016-05-16T09:41:19.461Z,10
2016-05-16T09:42:19.480Z,10
2016-05-16T09:43:19.342Z,10
2016-05-16T09:44:19.376Z,15
2016-05-16T09:45:19.581Z,15
2016-05-16T09:46:19.412Z,15
2016-05-16T09:47:19.618Z,15
2016-05-16T09:48:19.621Z,15
2016-05-16T09:49:19.514Z,15
2016-05-16T09:50:20.126Z,20
2016-05-16T09:51:19.661Z,20
2016-05-16T09:52:19.710Z,25
2016-05-16T09:53:19.431Z,30
2016-05-16T09:54:19.746Z,35
2016-05-16T09:55:19.780Z,30
2016-05-16T09:56:19.799Z,30
2016-05-16T09:57:19.817Z,25
2016-05-16T09:58:19.852Z,25
2016-05-16T09:59:19.729Z,25
2016-05-16T10:00:19.904Z,25
2016-05-16T10:01:19.906Z,30
2016-05-16T10:02:19.940Z,30
2016-05-16T10:03:19.973Z,35
2016-05-16T10:04:20.023Z,40
2016-05-16T10:05:20.010Z,45
2016-05-16T10:06:20.513Z,50
2016-05-16T10:07:19.907Z,55
2016-05-16T10:08:20.065Z,55
2016-05-16T10:09:20.099Z,60
2016-05-16T10:10:20.117Z,55
2016-05-16T10:11:20.151Z,40
2016-05-16T10:12:19.842Z,30
2016-05-16T10:13:20.189Z,35
2016-05-16T10:14:20.270Z,30
2016-05-16T10:15:20.365Z,25
2016-05-16T10:16:20.243Z,20
2016-05-16T10:17:20.120Z,20
2016-05-16T10:18:34.373Z,20
2016-05-16T10:19:20.157Z,15
2016-05-16T10:20:20.833Z,20
2016-05-16T10:21:20.413Z,20
2016-05-16T10:22:20.228Z,20
2016-05-16T10:23:20.450Z,20
2016-05-16T10:24:20.264Z,15
2016-05-16T10:25:20.299Z,15
2016-05-16T10:26:20.160Z,10
2016-05-16T10:27:20.038Z,15
2016-05-16T10:28:20.369Z,15
2016-05-16T10:29:20.544Z,10
2016-05-16T10:30:20.406Z,10
2016-05-16T10:31:20.580Z,10
2016-05-16T10:32:20.615Z,10
2016-05-16T10:33:20.476Z,10
2016-05-16T10:34:20.651Z,10
2016-05-16T10:35:20.981Z,10
2016-05-16T10:36:20.594Z,15
2016-05-16T10:37:20.581Z,15
2016-05-16T10:38:20.755Z,15
2016-05-16T10:39:20.759Z,20
2016-05-16T10:40:20.793Z,25
2016-05-16T10:41:20.810Z,25
2016-05-16T10:42:20.845Z,25
2016-05-16T10:43:20.878Z,25
2016-05-16T10:44:20.725Z,30
2016-05-16T10:45:20.899Z,30
2016-05-16T10:46:20.933Z,30
2016-05-16T10:47:20.951Z,35
2016-05-16T10:48:20.970Z,35
2016-05-16T10:49:20.831Z,40
2016-05-16T10:50:21.428Z,40
2016-05-16T10:51:21.540Z,45
2016-05-16T10:52:20.887Z,45
2016-05-16T10:53:20.936Z,45
2016-05-16T10:54:20.970Z,45
2016-05-16T10:55:21.130Z,50
2016-05-16T10:56:21.163Z,50
2016-05-16T10:57:21.222Z,50
2016-05-16T10:58:21.287Z,45
2016-05-16T10:59:21.227Z,40
2016-05-16T11:00:21.308Z,45
2016-05-16T11:01:21.513Z,50
2016-05-16T11:02:21.537Z,50
2016-05-16T11:03:21.573Z,45
2016-05-16T11:04:21.623Z,50
2016-05-16T11:05:21.503Z,50
2016-05-16T11:06:22.835Z,60
2016-05-16T11:07:21.719Z,70
2016-05-16T11:08:21.744Z,80
2016-05-16T11:09:21.783Z,85
2016-05-16T11:10:21.808Z,80
2016-05-16T11:11:21.707Z,80
2016-05-16T11:12:21.728Z,80
2016-05-16T11:13:21.888Z,70
2016-05-16T11:14:21.910Z,70
2016-05-16T11:15:21.929Z,70
2016-05-16T11:16:21.795Z,75
2016-05-16T11:17:21.829Z,80
2016-05-16T11:18:22.004Z,60
2016-05-16T11:19:22.040Z,75
2016-05-16T11:20:22.230Z,90
2016-05-16T11:21:21.999Z,90
2016-05-16T11:22:22.097Z,85
2016-05-16T11:23:22.130Z,70
2016-05-16T11:24:22.165Z,70
2016-05-16T11:25:21.714Z,65
2016-05-16T11:26:22.061Z,65
2016-05-16T11:27:22.220Z,65
2016-05-16T11:28:22.239Z,50
2016-05-16T11:29:22.116Z,65
2016-05-16T11:30:22.292Z,30
2016-05-16T11:31:22.153Z,35
2016-05-16T11:32:22.344Z,45
2016-05-16T11:33:22.206Z,20
2016-05-16T11:34:22.208Z,20
2016-05-16T11:35:22.414Z,40
2016-05-16T11:36:22.479Z,25
2016-05-16T11:37:22.466Z,30
2016-05-16T11:38:22.313Z,40
2016-05-16T11:39:22.191Z,35
2016-05-16T11:40:22.365Z,30
2016-05-16T11:41:22.540Z,25
2016-05-16T11:42:22.573Z,30
2016-05-16T11:43:22.591Z,35
2016-05-16T11:44:22.469Z,75
2016-05-16T11:45:22.643Z,80
2016-05-16T11:46:22.522Z,65
2016-05-16T11:47:22.681Z,20
2016-05-16T11:48:22.715Z,25
2016-05-16T11:49:22.780Z,25
2016-05-16T11:50:22.767Z,35
2016-05-16T11:51:23.442Z,45
2016-05-16T11:52:22.662Z,35
2016-05-16T11:53:22.837Z,35
2016-05-16T11:54:22.700Z,30
2016-05-16T11:55:22.890Z,20
2016-05-16T11:56:22.908Z,20
2016-05-16T11:57:22.926Z,20
2016-05-16T11:58:22.944Z,30
2016-05-16T11:59:22.667Z,40
2016-05-16T12:00:23.012Z,50
2016-05-16T12:01:22.875Z,45
2016-05-16T12:02:23.050Z,60
2016-05-16T12:03:23.067Z,60
2016-05-16T12:04:23.102Z,50
2016-05-16T12:05:22.963Z,25
2016-05-16T12:06:23.232Z,20
2016-05-16T12:07:23.188Z,25
2016-05-16T12:08:23.081Z,35
2016-05-16T12:09:23.099Z,60
2016-05-16T12:10:23.274Z,95
2016-05-16T12:11:23.292Z,90
2016-05-16T12:12:23.169Z,80
2016-05-16T12:13:23.172Z,60
2016-05-16T12:14:23.347Z,65
2016-05-16T12:15:23.366Z,70
2016-05-16T12:16:23.415Z,70
2016-05-16T12:17:23.418Z,90
2016-05-16T12:18:23.279Z,70
2016-05-16T12:19:23.485Z,45
2016-05-16T12:20:23.347Z,65
2016-05-16T12:21:23.522Z,80
2016-05-16T12:22:23.385Z,85
2016-05-16T12:23:23.574Z,85
2016-05-16T12:24:23.437Z,80
2016-05-16T12:25:23.470Z,70
2016-05-16T12:26:23.504Z,65
2016-05-16T12:27:23.679Z,65
2016-05-16T12:28:23.728Z,60
2016-05-16T12:29:23.419Z,60
2016-05-16T12:30:23.750Z,65
2016-05-16T12:31:23.628Z,70
2016-05-16T12:32:23.677Z,70
2016-05-16T12:33:23.570Z,75
2016-05-16T12:34:23.713Z,45
2016-05-16T12:35:24.075Z,60
2016-05-16T12:36:23.905Z,65
2016-05-16T12:37:23.909Z,65
2016-05-16T12:38:23.959Z,50
2016-05-16T12:39:23.977Z,50
2016-05-16T12:40:23.683Z,25
2016-05-16T12:41:24.060Z,25
2016-05-16T12:42:23.891Z,30
2016-05-16T12:43:24.065Z,55
2016-05-16T12:44:23.959Z,50
2016-05-16T12:45:23.977Z,55
2016-05-16T12:46:24.168Z,60
2016-05-16T12:47:24.029Z,35
2016-05-16T12:48:24.204Z,70
2016-05-16T12:49:24.238Z,65
2016-05-16T12:50:24.256Z,60
2016-05-16T12:51:24.135Z,65
2016-05-16T12:52:24.308Z,35
2016-05-16T12:53:24.327Z,40
2016-05-16T12:54:24.362Z,80
2016-05-16T12:55:24.067Z,85
2016-05-16T12:56:24.397Z,75
2016-05-16T12:57:24.275Z,55
2016-05-16T12:58:24.450Z,55
2016-05-16T12:59:24.484Z,55
2016-05-16T13:00:24.534Z,55
2016-05-16T13:01:24.364Z,60
2016-05-16T13:02:24.539Z,65
2016-05-16T13:03:24.603Z,65
2016-05-16T13:04:24.309Z,80
2016-05-16T13:05:24.656Z,80
2016-05-16T13:06:24.800Z,75
2016-05-16T13:07:24.521Z,70
2016-05-16T13:08:24.727Z,70
2016-05-16T13:09:24.730Z,40
2016-05-16T13:10:24.763Z,45
2016-05-16T13:11:24.641Z,45
2016-05-16T13:12:24.846Z,50
2016-05-16T13:13:24.849Z,50
2016-05-16T13:14:24.868Z,50
2016-05-16T13:15:24.746Z,55
2016-05-16T13:16:24.811Z,60
2016-05-16T13:17:24.969Z,60
2016-05-16T13:18:25.019Z,90
2016-05-16T13:19:24.865Z,60
2016-05-16T13:20:25.009Z,55
2016-05-16T13:21:25.449Z,75
2016-05-16T13:22:24.937Z,50
2016-05-16T13:23:25.110Z,35
2016-05-16T13:24:25.145Z,70
2016-05-16T13:25:25.163Z,75
2016-05-16T13:26:25.197Z,80
2016-05-16T13:27:25.215Z,80
2016-05-16T13:28:25.264Z,80
2016-05-16T13:29:25.284Z,80
2016-05-16T13:30:25.317Z,75
2016-05-16T13:31:25.336Z,65
2016-05-16T13:32:25.384Z,50
2016-05-16T13:33:25.419Z,55
2016-05-16T13:34:25.406Z,50
2016-05-16T13:35:25.517Z,55
2016-05-16T13:36:25.614Z,75
2016-05-16T13:37:25.508Z,80
2016-05-16T13:38:25.214Z,85
2016-05-16T13:39:25.560Z,80
2016-05-16T13:40:25.578Z,80
2016-05-16T13:41:25.456Z,50
2016-05-16T13:42:25.647Z,60
2016-05-16T13:43:25.352Z,60
2016-05-16T13:44:25.542Z,55
2016-05-16T13:45:25.717Z,55
2016-05-16T13:46:25.751Z,50
2016-05-16T13:47:25.784Z,50
2016-05-16T13:48:25.662Z,50
2016-05-16T13:49:25.681Z,50
2016-05-16T13:50:25.730Z,45
2016-05-16T13:51:25.592Z,35
2016-05-16T13:52:25.907Z,30
2016-05-16T13:53:25.957Z,25
2016-05-16T13:54:25.819Z,25
2016-05-16T13:55:25.853Z,25
2016-05-16T13:56:26.028Z,30
2016-05-16T13:57:26.062Z,30
2016-05-16T13:58:25.924Z,30
2016-05-16T13:59:25.973Z,30
2016-05-16T14:00:25.710Z,30
2016-05-16T14:01:26.041Z,30
2016-05-16T14:02:26.059Z,30
2016-05-16T14:03:26.264Z,30
2016-05-16T14:04:26.253Z,30
2016-05-16T14:05:26.318Z,35
2016-05-16T14:06:26.023Z,40
2016-05-16T14:07:26.198Z,50
2016-05-16T14:08:26.216Z,55
2016-05-16T14:09:26.234Z,55
2016-05-16T14:10:25.813Z,55
2016-05-16T14:11:26.161Z,55
2016-05-16T14:12:26.336Z,50
2016-05-16T14:13:26.527Z,55
2016-05-16T14:14:26.544Z,55
2016-05-16T14:15:26.407Z,50
2016-05-16T14:16:26.597Z,45
2016-05-16T14:17:26.616Z,45
2016-05-16T14:18:26.508Z,60
2016-05-16T14:19:26.371Z,60
2016-05-16T14:20:26.718Z,45
2016-05-16T14:21:26.595Z,40
2016-05-16T14:22:26.754Z,50
2016-05-16T14:23:26.662Z,50
2016-05-16T14:24:26.509Z,75
2016-05-16T14:25:26.668Z,50
2016-05-16T14:26:26.873Z,70